David Mcnemar — WDF4192 — position and weather

sailwx.info

Track history (hours):
 
Tides and Currents Weather Stations Pressure Air Temp Water Temp Dewpoint Dewpoint Depression Visibility Wind Speed Wind Dir Waves Ship Positions

David Mcnemar

Owner: Florida Marine Transporters, Inc., Mandeville, LA. More information available from US FCC via Universal Licensing System and Coast Guard Vessel Documentation Center.

Last reported at 2018-Jun-23 19:24 UTC. Time now 2018-Jun-24 20:38 UTC.
Position N 29°49' W 092°01'.

Length 27 m; draft 2.7 m.

Type: Towing. MMSI: 367449040.

Date/timePositionNaut miles runAvg speedWind from/ knotsBaromVisibWave heightAir tempDewpointWater temp
2018-Jun-23 19:24N 29°49' W 092°01'3 5.2
2018-Jun-23 18:52N 29°48' W 092°04'2 5.1
2018-Jun-23 18:30N 29°48' W 092°06'3 5.2
2018-Jun-23 18:00N 29°47' W 092°09'3 5.2
2018-Jun-23 17:30N 29°47' W 092°12'1 2.1
2018-Jun-23 17:00N 29°47' W 092°13'3 5.7
2018-Jun-23 16:30N 29°48' W 092°16'3 5.4
2018-Jun-23 16:00N 29°50' W 092°18'3 5.4
2018-Jun-23 15:30N 29°51' W 092°21'3 5.2
2018-Jun-23 14:58N 29°53' W 092°23'2 5.1
2018-Jun-23 14:30N 29°53' W 092°26'34 4.8
2018-Jun-23 07:27N 29°56' W 093°05'2 3.9
2018-Jun-23 07:00N 29°56' W 093°07'2 4.6
2018-Jun-23 06:30N 29°56' W 093°09'2 4.1
2018-Jun-23 06:00N 29°58' W 093°11'2 3.8
2018-Jun-23 05:28N 29°59' W 093°13'2 3.9
2018-Jun-23 05:00N 30°01' W 093°14'2 3.6
2018-Jun-23 04:30N 30°02' W 093°15'2 3.5
2018-Jun-23 04:01N 30°04' W 093°16'2 4.3
2018-Jun-23 03:30N 30°05' W 093°17'0 0.5
2018-Jun-23 03:01N 30°05' W 093°18'1 1.4
2018-Jun-23 02:30N 30°06' W 093°18'0 0.3
2018-Jun-23 02:00N 30°06' W 093°18'0 0.0
2018-Jun-23 01:30N 30°06' W 093°18'0 0.0
2018-Jun-23 01:00N 30°06' W 093°18'0 0.0
2018-Jun-23 00:30N 30°06' W 093°18'0 0.0
2018-Jun-23 00:00N 30°06' W 093°18'0 0.0
2018-Jun-22 23:30N 30°06' W 093°18'0 0.0
2018-Jun-22 23:00N 30°06' W 093°18'0 0.0
2018-Jun-22 22:30N 30°06' W 093°18'0 0.0
2018-Jun-22 22:00N 30°06' W 093°18'0 0.0
2018-Jun-22 21:30N 30°06' W 093°18'0 0.0
2018-Jun-22 21:00N 30°06' W 093°18'0 0.0
2018-Jun-22 20:30N 30°06' W 093°18'0 0.0
2018-Jun-22 20:00N 30°06' W 093°18'0 0.0
2018-Jun-22 19:30N 30°06' W 093°18'0 0.0
2018-Jun-22 19:00N 30°06' W 093°18'0 0.0
2018-Jun-22 18:30N 30°06' W 093°18'0 0.0
2018-Jun-22 18:00N 30°06' W 093°18'0 0.0
2018-Jun-22 17:30N 30°06' W 093°18'0 0.0
2018-Jun-22 17:00N 30°06' W 093°18'0 0.0
2018-Jun-22 16:30N 30°06' W 093°18'0 0.0
2018-Jun-22 16:00N 30°06' W 093°18'0 0.0
2018-Jun-22 15:30N 30°06' W 093°18'0 0.0
2018-Jun-22 14:59N 30°06' W 093°18'0 0.0
2018-Jun-22 14:30N 30°06' W 093°18'0 0.0
2018-Jun-22 14:00N 30°06' W 093°18'0 0.0
2018-Jun-22 13:30N 30°06' W 093°18'0 0.0
2018-Jun-22 13:00N 30°06' W 093°18'0 0.0
2018-Jun-22 12:29N 30°06' W 093°18'0 0.0
2018-Jun-22 12:00N 30°06' W 093°18'0 0.0
2018-Jun-22 11:30N 30°06' W 093°18'0 0.0
2018-Jun-22 11:00N 30°06' W 093°18'0 0.0
2018-Jun-22 10:30N 30°06' W 093°18'0 0.0
2018-Jun-22 10:00N 30°06' W 093°18'0 0.0
2018-Jun-22 09:30N 30°06' W 093°18'0 0.0
2018-Jun-22 09:00N 30°06' W 093°18'0 0.0
2018-Jun-22 08:30N 30°06' W 093°18'0 0.0
2018-Jun-22 08:00N 30°06' W 093°18'0 0.0
2018-Jun-22 07:30N 30°06' W 093°18'0 0.0
2018-Jun-22 07:00N 30°06' W 093°18'0 0.0
2018-Jun-22 06:30N 30°06' W 093°18'0 0.0
2018-Jun-22 06:00N 30°06' W 093°18'0 0.0
2018-Jun-22 05:31N 30°06' W 093°18'0 0.0
2018-Jun-22 05:01N 30°06' W 093°18'0 0.0
2018-Jun-22 04:30N 30°06' W 093°18'0 0.0
2018-Jun-22 04:00N 30°06' W 093°18'0 0.0
2018-Jun-22 03:30N 30°06' W 093°18'0 0.0
2018-Jun-22 03:00N 30°06' W 093°18'0 0.0
2018-Jun-22 02:30N 30°06' W 093°18'0 0.0
2018-Jun-22 02:00N 30°06' W 093°18'0 0.2
2018-Jun-22 01:30N 30°06' W 093°18'2 4.1
2018-Jun-22 01:00N 30°05' W 093°20'2 4.8
2018-Jun-22 00:30N 30°04' W 093°23'3 6.1
2018-Jun-21 23:59N 30°04' W 093°26'3 5.9
2018-Jun-21 23:30N 30°04' W 093°30'3 5.8
2018-Jun-21 23:00N 30°04' W 093°33'3 5.8
2018-Jun-21 22:30N 30°04' W 093°36'3 5.9
2018-Jun-21 22:00N 30°04' W 093°40'3 6.0
2018-Jun-21 21:30N 30°03' W 093°43'3 6.0
2018-Jun-21 21:00N 30°01' W 093°45'3 5.2
2018-Jun-21 20:30N 29°59' W 093°48'3 5.5
2018-Jun-21 20:00N 29°58' W 093°51'2 4.2
2018-Jun-21 19:30N 29°59' W 093°53'3 5.4
2018-Jun-21 19:00N 29°60' W 093°56'2 4.7
2018-Jun-21 18:30N 30°01' W 093°58'1 1.5
2018-Jun-21 18:00N 30°01' W 093°59'0 0.5
2018-Jun-21 17:30N 30°01' W 093°59'0 0.0
2018-Jun-21 17:01N 30°01' W 093°59'0 0.0
2018-Jun-21 16:30N 30°01' W 093°59'0 0.0
2018-Jun-21 16:00N 30°01' W 093°59'0 0.0
2018-Jun-21 15:30N 30°01' W 093°59'0 0.0
2018-Jun-21 15:00N 30°01' W 093°59'0 0.0
2018-Jun-21 14:30N 30°01' W 093°59'0 0.8
2018-Jun-21 14:00N 30°01' W 093°59'0 0.5
2018-Jun-21 13:30N 30°01' W 093°59'0 0.2
2018-Jun-21 12:59N 30°01' W 093°59'0 0.7
2018-Jun-21 12:30N 30°01' W 093°59'0 0.0
2018-Jun-21 12:00N 30°01' W 093°59'0 0.0
2018-Jun-21 11:30N 30°01' W 093°59'0 0.0
2018-Jun-21 10:53N 30°01' W 093°59'0 0.0
2018-Jun-21 10:30N 30°01' W 093°59'0 0.0
2018-Jun-21 10:00N 30°01' W 093°59'0 0.0
2018-Jun-21 09:30N 30°01' W 093°59'0 0.0
2018-Jun-21 09:00N 30°01' W 093°59'0 0.0
2018-Jun-21 08:29N 30°01' W 093°59'0 0.0
2018-Jun-21 07:59N 30°01' W 093°59'0 0.0
2018-Jun-21 07:30N 30°01' W 093°59'0 0.0
2018-Jun-21 07:00N 30°01' W 093°59'0 0.0
2018-Jun-21 06:30N 30°01' W 093°59'0 0.0
2018-Jun-21 06:00N 30°01' W 093°59'0 0.0
2018-Jun-21 05:30N 30°01' W 093°59'0 0.0
2018-Jun-21 05:00N 30°01' W 093°59'0 0.0
2018-Jun-21 04:30N 30°01' W 093°59'0 0.0
2018-Jun-21 03:59N 30°01' W 093°59'0 0.0
2018-Jun-21 03:30N 30°01' W 093°59'0 0.0
2018-Jun-21 03:00N 30°01' W 093°59'0 0.0
2018-Jun-21 02:30N 30°01' W 093°59'0 0.0
2018-Jun-21 01:59N 30°01' W 093°59'0 0.0
2018-Jun-21 01:30N 30°01' W 093°59'0 0.0
2018-Jun-21 01:00N 30°01' W 093°59'0 0.0
2018-Jun-21 00:29N 30°01' W 093°59'0 0.0
2018-Jun-21 00:00N 30°01' W 093°59'0 0.0
2018-Jun-20 23:30N 30°01' W 093°59'0 0.0
2018-Jun-20 23:00N 30°01' W 093°59'0 0.0
2018-Jun-20 22:30N 30°01' W 093°59'0 0.0
2018-Jun-20 22:00N 30°01' W 093°59'0 0.4
2018-Jun-20 21:30N 30°01' W 093°59'1 1.1
2018-Jun-20 21:00N 30°01' W 093°59'0 0.0
2018-Jun-20 20:30N 30°01' W 093°59'0 0.0
2018-Jun-20 20:00N 30°01' W 093°59'0 0.3
2018-Jun-20 19:30N 30°01' W 093°59'1 1.7
2018-Jun-20 19:00N 30°01' W 093°58'3 6.1
2018-Jun-20 18:30N 29°59' W 093°55'3 6.9
2018-Jun-20 18:00N 29°58' W 093°51'3 6.8
2018-Jun-20 17:30N 29°59' W 093°48'3 5.9
2018-Jun-20 17:00N 30°01' W 093°45'0 0.1
2018-Jun-20 16:30N 30°01' W 093°45'0 0.6
2018-Jun-20 16:00N 30°01' W 093°45'3 5.7
2018-Jun-20 15:30N 30°03' W 093°42'3 6.1
2018-Jun-20 15:00N 30°04' W 093°39'3 6.8
2018-Jun-20 14:30N 30°04' W 093°35'3 6.2
2018-Jun-20 14:00N 30°04' W 093°31'3 6.2
2018-Jun-20 13:29N 30°04' W 093°28'3 6.1
2018-Jun-20 13:00N 30°04' W 093°24'3 4.9
2018-Jun-20 12:30N 30°04' W 093°21'2 4.6
2018-Jun-20 12:00N 30°05' W 093°20'2 3.6
2018-Jun-20 11:31N 30°05' W 093°18'0 0.9
2018-Jun-20 11:00N 30°05' W 093°17'1 1.8
2018-Jun-20 10:30N 30°04' W 093°16'1 2.1
2018-Jun-20 10:00N 30°03' W 093°16'0 0.0
2018-Jun-20 09:30N 30°03' W 093°16'0 0.0
2018-Jun-20 09:00N 30°03' W 093°16'0 0.0
2018-Jun-20 08:30N 30°03' W 093°16'0 0.0
2018-Jun-20 08:00N 30°03' W 093°16'0 0.0
2018-Jun-20 07:30N 30°03' W 093°16'0 0.0
2018-Jun-20 07:00N 30°03' W 093°16'0 0.0
2018-Jun-20 06:30N 30°03' W 093°16'0 0.0
2018-Jun-20 06:00N 30°03' W 093°16'0 0.0
2018-Jun-20 05:30N 30°03' W 093°16'0 0.0
2018-Jun-20 05:00N 30°03' W 093°16'0 0.1
2018-Jun-20 04:30N 30°04' W 093°16'0 0.6
2018-Jun-20 04:00N 30°03' W 093°16'1 2.4
2018-Jun-20 03:30N 30°02' W 093°15'1 1.8
2018-Jun-20 03:00N 30°02' W 093°14'0 0.0
2018-Jun-20 02:29N 30°02' W 093°14'0 0.0
2018-Jun-20 02:00N 30°02' W 093°14'0 0.0
2018-Jun-20 01:30N 30°02' W 093°14'0 0.0
2018-Jun-20 01:00N 30°02' W 093°14'0 0.0
2018-Jun-20 00:30N 30°02' W 093°14'0 0.0
2018-Jun-20 00:00N 30°02' W 093°14'0 0.0
2018-Jun-19 23:30N 30°02' W 093°14'0 0.0
2018-Jun-19 23:00N 30°02' W 093°14'0 0.0
2018-Jun-19 22:30N 30°02' W 093°14'0 0.0
2018-Jun-19 22:00N 30°02' W 093°14'0 0.0
2018-Jun-19 21:31N 30°02' W 093°14'0 0.0
2018-Jun-19 21:00N 30°02' W 093°14'1 1.8
2018-Jun-19 20:30N 30°01' W 093°14'2 3.0
2018-Jun-19 20:00N 29°60' W 093°13'0 0.0
2018-Jun-19 19:30N 29°60' W 093°13'0 0.0
2018-Jun-19 19:00N 29°60' W 093°13'0 0.0
2018-Jun-19 18:30N 29°60' W 093°13'0 0.0
2018-Jun-19 18:00N 29°60' W 093°13'0 0.5
2018-Jun-19 17:30N 29°59' W 093°13'1 2.2
2018-Jun-19 17:00N 29°59' W 093°12'3 6.0
2018-Jun-19 16:30N 29°56' W 093°10'4 5.8
2018-Jun-19 15:45N 29°56' W 093°05'38 5.6
2018-Jun-19 09:02N 29°51' W 092°22'0 4.5
2018-Jun-19 09:00N 29°51' W 092°22'2 4.5
2018-Jun-19 08:30N 29°50' W 092°19'2 4.6
2018-Jun-19 08:00N 29°49' W 092°17'2 4.6
2018-Jun-19 07:30N 29°48' W 092°15'2 4.4
2018-Jun-19 07:00N 29°47' W 092°12'1 1.9
2018-Jun-19 06:30N 29°47' W 092°11'1 1.0
2018-Jun-19 05:58N 29°47' W 092°11'0 0.0
2018-Jun-19 05:30N 29°47' W 092°11'0 0.0
2018-Jun-19 05:00N 29°47' W 092°11'0 0.0
2018-Jun-19 04:30N 29°47' W 092°11'0 0.0
2018-Jun-19 04:00N 29°47' W 092°11'0 0.0
2018-Jun-19 03:30N 29°47' W 092°11'0 0.0
2018-Jun-19 03:00N 29°47' W 092°11'0 0.0
2018-Jun-19 02:30N 29°47' W 092°11'0 0.0
2018-Jun-19 02:00N 29°47' W 092°11'0 0.0
2018-Jun-19 01:30N 29°47' W 092°11'0 0.0
2018-Jun-19 01:00N 29°47' W 092°11'0 0.0
2018-Jun-19 00:30N 29°47' W 092°11'0 0.0
2018-Jun-19 00:00N 29°47' W 092°11'0 0.0
2018-Jun-18 23:30N 29°47' W 092°11'0 0.0
2018-Jun-18 23:00N 29°47' W 092°11'0 0.0
2018-Jun-18 22:30N 29°47' W 092°11'1 1.9
2018-Jun-18 22:00N 29°47' W 092°10'1 1.4
2018-Jun-18 21:30N 29°47' W 092°09'1 3.0
2018-Jun-18 21:01N 29°47' W 092°07'0 0.0
2018-Jun-18 20:30N 29°47' W 092°07'0 0.2
2018-Jun-18 20:00N 29°47' W 092°07'3 5.2
2018-Jun-18 19:30N 29°48' W 092°04'3 6.7
2018-Jun-18 19:01N 29°50' W 092°01'3 6.2
2018-Jun-18 18:30N 29°50' W 091°57'0 0.0
2018-Jun-18 18:00N 29°50' W 091°57'1 2.1
2018-Jun-18 17:30N 29°51' W 091°56'  
2018-Jun-15 06:12N 29°51' W 091°56'1 4.9
2018-Jun-15 05:59N 29°50' W 091°57'2 5.2
2018-Jun-15 05:30N 29°50' W 091°60'3 5.2
2018-Jun-15 05:00N 29°49' W 092°03'2 4.9
2018-Jun-15 04:30N 29°48' W 092°05'2 4.9
2018-Jun-15 04:00N 29°47' W 092°08'2 4.6
2018-Jun-15 03:30N 29°47' W 092°11'2 3.5
2018-Jun-15 03:00N 29°47' W 092°12'1 1.6
2018-Jun-15 02:30N 29°48' W 092°13'2 3.3
2018-Jun-15 02:00N 29°48' W 092°15'2 3.6
2018-Jun-15 01:30N 29°49' W 092°17'2 4.4
2018-Jun-15 01:00N 29°50' W 092°19'2 3.5
2018-Jun-15 00:30N 29°51' W 092°21'1 2.5
2018-Jun-15 00:00N 29°52' W 092°22'2 3.6
2018-Jun-14 23:29N 29°53' W 092°23'2 4.7
2018-Jun-14 23:00N 29°53' W 092°26'34 4.4
2018-Jun-14 15:20N 29°56' W 093°05'2 4.0
2018-Jun-14 14:50N 29°56' W 093°07'1 4.3
2018-Jun-14 14:30N 29°56' W 093°09'2 3.6
2018-Jun-14 13:56N 29°57' W 093°11'1 3.1
2018-Jun-14 13:30N 29°58' W 093°12'1 2.8
2018-Jun-14 13:00N 29°59' W 093°13'2 3.1
2018-Jun-14 12:30N 30°01' W 093°14'2 3.6
2018-Jun-14 12:01N 30°02' W 093°15'2 3.1
2018-Jun-14 11:30N 30°03' W 093°16'2 3.2
2018-Jun-14 11:00N 30°05' W 093°17'1 2.1
2018-Jun-14 10:30N 30°05' W 093°18'1 2.4
2018-Jun-14 10:00N 30°06' W 093°19'0 0.4
2018-Jun-14 09:30N 30°06' W 093°19'0 0.0
2018-Jun-14 09:01N 30°06' W 093°19'0 0.0
2018-Jun-14 08:30N 30°06' W 093°19'0 0.0
2018-Jun-14 08:00N 30°06' W 093°19'0 0.0
2018-Jun-14 07:30N 30°06' W 093°19'0 0.0
2018-Jun-14 07:00N 30°06' W 093°19'0 0.0
2018-Jun-14 06:30N 30°06' W 093°19'0 0.0
2018-Jun-14 06:00N 30°06' W 093°19'0 0.0
2018-Jun-14 05:31N 30°06' W 093°19'0 0.0
2018-Jun-14 05:00N 30°06' W 093°19'0 0.0
2018-Jun-14 04:30N 30°06' W 093°19'0 0.0
2018-Jun-14 04:01N 30°06' W 093°19'0 0.0
2018-Jun-14 03:30N 30°06' W 093°19'0 0.0
2018-Jun-14 03:00N 30°06' W 093°19'0 0.0
2018-Jun-14 02:30N 30°06' W 093°19'0 0.0
2018-Jun-14 02:00N 30°06' W 093°19'0 0.0
2018-Jun-14 01:30N 30°06' W 093°19'0 0.0
2018-Jun-14 01:00N 30°06' W 093°19'0 0.0
2018-Jun-14 00:30N 30°06' W 093°19'0 0.0
2018-Jun-14 00:00N 30°06' W 093°19'0 0.0
2018-Jun-13 23:30N 30°06' W 093°19'0 0.0
2018-Jun-13 23:01N 30°06' W 093°19'0 0.0
2018-Jun-13 22:30N 30°06' W 093°19'0 0.0
2018-Jun-13 22:01N 30°06' W 093°19'0 0.0
2018-Jun-13 21:30N 30°06' W 093°19'0 0.0
2018-Jun-13 21:00N 30°06' W 093°19'0 0.0
2018-Jun-13 20:30N 30°06' W 093°19'0 0.0
2018-Jun-13 20:00N 30°06' W 093°19'0 0.0
2018-Jun-13 19:30N 30°06' W 093°19'  
Track history (hours):
 
Tides and Currents Weather Stations Pressure Air Temp Water Temp Dewpoint Dewpoint Depression Visibility Wind Speed Wind Dir Waves Ship Positions

David Mcnemar

Owner: Florida Marine Transporters, Inc., Mandeville, LA. More information available from US FCC via Universal Licensing System and Coast Guard Vessel Documentation Center.

Last reported at 2018-Jun-23 19:24 UTC. Time now 2018-Jun-24 20:38 UTC.
Position N 29°49' W 092°01'.

Length 27 m; draft 2.7 m.

Type: Towing. MMSI: 367449040.

Date/timePositionNaut miles runAvg speedWind from/ knotsBaromVisibWave heightAir tempDewpointWater temp
2018-Jun-23 19:24N 29°49' W 092°01'3 5.2
2018-Jun-23 18:52N 29°48' W 092°04'2 5.1
2018-Jun-23 18:30N 29°48' W 092°06'3 5.2
2018-Jun-23 18:00N 29°47' W 092°09'3 5.2
2018-Jun-23 17:30N 29°47' W 092°12'1 2.1
2018-Jun-23 17:00N 29°47' W 092°13'3 5.7
2018-Jun-23 16:30N 29°48' W 092°16'3 5.4
2018-Jun-23 16:00N 29°50' W 092°18'3 5.4
2018-Jun-23 15:30N 29°51' W 092°21'3 5.2
2018-Jun-23 14:58N 29°53' W 092°23'2 5.1
2018-Jun-23 14:30N 29°53' W 092°26'34 4.8
2018-Jun-23 07:27N 29°56' W 093°05'2 3.9
2018-Jun-23 07:00N 29°56' W 093°07'2 4.6
2018-Jun-23 06:30N 29°56' W 093°09'2 4.1
2018-Jun-23 06:00N 29°58' W 093°11'2 3.8
2018-Jun-23 05:28N 29°59' W 093°13'2 3.9
2018-Jun-23 05:00N 30°01' W 093°14'2 3.6
2018-Jun-23 04:30N 30°02' W 093°15'2 3.5
2018-Jun-23 04:01N 30°04' W 093°16'2 4.3
2018-Jun-23 03:30N 30°05' W 093°17'0 0.5
2018-Jun-23 03:01N 30°05' W 093°18'1 1.4
2018-Jun-23 02:30N 30°06' W 093°18'0 0.3
2018-Jun-23 02:00N 30°06' W 093°18'0 0.0
2018-Jun-23 01:30N 30°06' W 093°18'0 0.0
2018-Jun-23 01:00N 30°06' W 093°18'0 0.0
2018-Jun-23 00:30N 30°06' W 093°18'0 0.0
2018-Jun-23 00:00N 30°06' W 093°18'0 0.0
2018-Jun-22 23:30N 30°06' W 093°18'0 0.0
2018-Jun-22 23:00N 30°06' W 093°18'0 0.0
2018-Jun-22 22:30N 30°06' W 093°18'0 0.0
2018-Jun-22 22:00N 30°06' W 093°18'0 0.0
2018-Jun-22 21:30N 30°06' W 093°18'0 0.0
2018-Jun-22 21:00N 30°06' W 093°18'0 0.0
2018-Jun-22 20:30N 30°06' W 093°18'0 0.0
2018-Jun-22 20:00N 30°06' W 093°18'0 0.0
2018-Jun-22 19:30N 30°06' W 093°18'0 0.0
2018-Jun-22 19:00N 30°06' W 093°18'0 0.0
2018-Jun-22 18:30N 30°06' W 093°18'0 0.0
2018-Jun-22 18:00N 30°06' W 093°18'0 0.0
2018-Jun-22 17:30N 30°06' W 093°18'0 0.0
2018-Jun-22 17:00N 30°06' W 093°18'0 0.0
2018-Jun-22 16:30N 30°06' W 093°18'0 0.0
2018-Jun-22 16:00N 30°06' W 093°18'0 0.0
2018-Jun-22 15:30N 30°06' W 093°18'0 0.0
2018-Jun-22 14:59N 30°06' W 093°18'0 0.0
2018-Jun-22 14:30N 30°06' W 093°18'0 0.0
2018-Jun-22 14:00N 30°06' W 093°18'0 0.0
2018-Jun-22 13:30N 30°06' W 093°18'0 0.0
2018-Jun-22 13:00N 30°06' W 093°18'0 0.0
2018-Jun-22 12:29N 30°06' W 093°18'0 0.0
2018-Jun-22 12:00N 30°06' W 093°18'0 0.0
2018-Jun-22 11:30N 30°06' W 093°18'0 0.0
2018-Jun-22 11:00N 30°06' W 093°18'0 0.0
2018-Jun-22 10:30N 30°06' W 093°18'0 0.0
2018-Jun-22 10:00N 30°06' W 093°18'0 0.0
2018-Jun-22 09:30N 30°06' W 093°18'0 0.0
2018-Jun-22 09:00N 30°06' W 093°18'0 0.0
2018-Jun-22 08:30N 30°06' W 093°18'0 0.0
2018-Jun-22 08:00N 30°06' W 093°18'0 0.0
2018-Jun-22 07:30N 30°06' W 093°18'0 0.0
2018-Jun-22 07:00N 30°06' W 093°18'0 0.0
2018-Jun-22 06:30N 30°06' W 093°18'0 0.0
2018-Jun-22 06:00N 30°06' W 093°18'0 0.0
2018-Jun-22 05:31N 30°06' W 093°18'0 0.0
2018-Jun-22 05:01N 30°06' W 093°18'0 0.0
2018-Jun-22 04:30N 30°06' W 093°18'0 0.0
2018-Jun-22 04:00N 30°06' W 093°18'0 0.0
2018-Jun-22 03:30N 30°06' W 093°18'0 0.0
2018-Jun-22 03:00N 30°06' W 093°18'0 0.0
2018-Jun-22 02:30N 30°06' W 093°18'0 0.0
2018-Jun-22 02:00N 30°06' W 093°18'0 0.2
2018-Jun-22 01:30N 30°06' W 093°18'2 4.1
2018-Jun-22 01:00N 30°05' W 093°20'2 4.8
2018-Jun-22 00:30N 30°04' W 093°23'3 6.1
2018-Jun-21 23:59N 30°04' W 093°26'3 5.9
2018-Jun-21 23:30N 30°04' W 093°30'3 5.8
2018-Jun-21 23:00N 30°04' W 093°33'3 5.8
2018-Jun-21 22:30N 30°04' W 093°36'3 5.9
2018-Jun-21 22:00N 30°04' W 093°40'3 6.0
2018-Jun-21 21:30N 30°03' W 093°43'3 6.0
2018-Jun-21 21:00N 30°01' W 093°45'3 5.2
2018-Jun-21 20:30N 29°59' W 093°48'3 5.5
2018-Jun-21 20:00N 29°58' W 093°51'2 4.2
2018-Jun-21 19:30N 29°59' W 093°53'3 5.4
2018-Jun-21 19:00N 29°60' W 093°56'2 4.7
2018-Jun-21 18:30N 30°01' W 093°58'1 1.5
2018-Jun-21 18:00N 30°01' W 093°59'0 0.5
2018-Jun-21 17:30N 30°01' W 093°59'0 0.0
2018-Jun-21 17:01N 30°01' W 093°59'0 0.0
2018-Jun-21 16:30N 30°01' W 093°59'0 0.0
2018-Jun-21 16:00N 30°01' W 093°59'0 0.0
2018-Jun-21 15:30N 30°01' W 093°59'0 0.0
2018-Jun-21 15:00N 30°01' W 093°59'0 0.0
2018-Jun-21 14:30N 30°01' W 093°59'0 0.8
2018-Jun-21 14:00N 30°01' W 093°59'0 0.5
2018-Jun-21 13:30N 30°01' W 093°59'0 0.2
2018-Jun-21 12:59N 30°01' W 093°59'0 0.7
2018-Jun-21 12:30N 30°01' W 093°59'0 0.0
2018-Jun-21 12:00N 30°01' W 093°59'0 0.0
2018-Jun-21 11:30N 30°01' W 093°59'0 0.0
2018-Jun-21 10:53N 30°01' W 093°59'0 0.0
2018-Jun-21 10:30N 30°01' W 093°59'0 0.0
2018-Jun-21 10:00N 30°01' W 093°59'0 0.0
2018-Jun-21 09:30N 30°01' W 093°59'0 0.0
2018-Jun-21 09:00N 30°01' W 093°59'0 0.0
2018-Jun-21 08:29N 30°01' W 093°59'0 0.0
2018-Jun-21 07:59N 30°01' W 093°59'0 0.0
2018-Jun-21 07:30N 30°01' W 093°59'0 0.0
2018-Jun-21 07:00N 30°01' W 093°59'0 0.0
2018-Jun-21 06:30N 30°01' W 093°59'0 0.0
2018-Jun-21 06:00N 30°01' W 093°59'0 0.0
2018-Jun-21 05:30N 30°01' W 093°59'0 0.0
2018-Jun-21 05:00N 30°01' W 093°59'0 0.0
2018-Jun-21 04:30N 30°01' W 093°59'0 0.0
2018-Jun-21 03:59N 30°01' W 093°59'0 0.0
2018-Jun-21 03:30N 30°01' W 093°59'0 0.0
2018-Jun-21 03:00N 30°01' W 093°59'0 0.0
2018-Jun-21 02:30N 30°01' W 093°59'0 0.0
2018-Jun-21 01:59N 30°01' W 093°59'0 0.0
2018-Jun-21 01:30N 30°01' W 093°59'0 0.0
2018-Jun-21 01:00N 30°01' W 093°59'0 0.0
2018-Jun-21 00:29N 30°01' W 093°59'0 0.0
2018-Jun-21 00:00N 30°01' W 093°59'0 0.0
2018-Jun-20 23:30N 30°01' W 093°59'0 0.0
2018-Jun-20 23:00N 30°01' W 093°59'0 0.0
2018-Jun-20 22:30N 30°01' W 093°59'0 0.0
2018-Jun-20 22:00N 30°01' W 093°59'0 0.4
2018-Jun-20 21:30N 30°01' W 093°59'1 1.1
2018-Jun-20 21:00N 30°01' W 093°59'0 0.0
2018-Jun-20 20:30N 30°01' W 093°59'0 0.0
2018-Jun-20 20:00N 30°01' W 093°59'0 0.3
2018-Jun-20 19:30N 30°01' W 093°59'1 1.7
2018-Jun-20 19:00N 30°01' W 093°58'3 6.1
2018-Jun-20 18:30N 29°59' W 093°55'3 6.9
2018-Jun-20 18:00N 29°58' W 093°51'3 6.8
2018-Jun-20 17:30N 29°59' W 093°48'3 5.9
2018-Jun-20 17:00N 30°01' W 093°45'0 0.1
2018-Jun-20 16:30N 30°01' W 093°45'0 0.6
2018-Jun-20 16:00N 30°01' W 093°45'3 5.7
2018-Jun-20 15:30N 30°03' W 093°42'3 6.1
2018-Jun-20 15:00N 30°04' W 093°39'3 6.8
2018-Jun-20 14:30N 30°04' W 093°35'3 6.2
2018-Jun-20 14:00N 30°04' W 093°31'3 6.2
2018-Jun-20 13:29N 30°04' W 093°28'3 6.1
2018-Jun-20 13:00N 30°04' W 093°24'3 4.9
2018-Jun-20 12:30N 30°04' W 093°21'2 4.6
2018-Jun-20 12:00N 30°05' W 093°20'2 3.6
2018-Jun-20 11:31N 30°05' W 093°18'0 0.9
2018-Jun-20 11:00N 30°05' W 093°17'1 1.8
2018-Jun-20 10:30N 30°04' W 093°16'1 2.1
2018-Jun-20 10:00N 30°03' W 093°16'0 0.0
2018-Jun-20 09:30N 30°03' W 093°16'0 0.0
2018-Jun-20 09:00N 30°03' W 093°16'0 0.0
2018-Jun-20 08:30N 30°03' W 093°16'0 0.0
2018-Jun-20 08:00N 30°03' W 093°16'0 0.0
2018-Jun-20 07:30N 30°03' W 093°16'0 0.0
2018-Jun-20 07:00N 30°03' W 093°16'0 0.0
2018-Jun-20 06:30N 30°03' W 093°16'0 0.0
2018-Jun-20 06:00N 30°03' W 093°16'0 0.0
2018-Jun-20 05:30N 30°03' W 093°16'0 0.0
2018-Jun-20 05:00N 30°03' W 093°16'0 0.1
2018-Jun-20 04:30N 30°04' W 093°16'0 0.6
2018-Jun-20 04:00N 30°03' W 093°16'1 2.4
2018-Jun-20 03:30N 30°02' W 093°15'1 1.8
2018-Jun-20 03:00N 30°02' W 093°14'0 0.0
2018-Jun-20 02:29N 30°02' W 093°14'0 0.0
2018-Jun-20 02:00N 30°02' W 093°14'0 0.0
2018-Jun-20 01:30N 30°02' W 093°14'0 0.0
2018-Jun-20 01:00N 30°02' W 093°14'0 0.0
2018-Jun-20 00:30N 30°02' W 093°14'0 0.0
2018-Jun-20 00:00N 30°02' W 093°14'0 0.0
2018-Jun-19 23:30N 30°02' W 093°14'0 0.0
2018-Jun-19 23:00N 30°02' W 093°14'0 0.0
2018-Jun-19 22:30N 30°02' W 093°14'0 0.0
2018-Jun-19 22:00N 30°02' W 093°14'0 0.0
2018-Jun-19 21:31N 30°02' W 093°14'0 0.0
2018-Jun-19 21:00N 30°02' W 093°14'1 1.8
2018-Jun-19 20:30N 30°01' W 093°14'2 3.0
2018-Jun-19 20:00N 29°60' W 093°13'0 0.0
2018-Jun-19 19:30N 29°60' W 093°13'0 0.0
2018-Jun-19 19:00N 29°60' W 093°13'0 0.0
2018-Jun-19 18:30N 29°60' W 093°13'0 0.0
2018-Jun-19 18:00N 29°60' W 093°13'0 0.5
2018-Jun-19 17:30N 29°59' W 093°13'1 2.2
2018-Jun-19 17:00N 29°59' W 093°12'3 6.0
2018-Jun-19 16:30N 29°56' W 093°10'4 5.8
2018-Jun-19 15:45N 29°56' W 093°05'38 5.6
2018-Jun-19 09:02N 29°51' W 092°22'0 4.5
2018-Jun-19 09:00N 29°51' W 092°22'2 4.5
2018-Jun-19 08:30N 29°50' W 092°19'2 4.6
2018-Jun-19 08:00N 29°49' W 092°17'2 4.6
2018-Jun-19 07:30N 29°48' W 092°15'2 4.4
2018-Jun-19 07:00N 29°47' W 092°12'1 1.9
2018-Jun-19 06:30N 29°47' W 092°11'1 1.0
2018-Jun-19 05:58N 29°47' W 092°11'0 0.0
2018-Jun-19 05:30N 29°47' W 092°11'0 0.0
2018-Jun-19 05:00N 29°47' W 092°11'0 0.0
2018-Jun-19 04:30N 29°47' W 092°11'0 0.0
2018-Jun-19 04:00N 29°47' W 092°11'0 0.0
2018-Jun-19 03:30N 29°47' W 092°11'0 0.0
2018-Jun-19 03:00N 29°47' W 092°11'0 0.0
2018-Jun-19 02:30N 29°47' W 092°11'0 0.0
2018-Jun-19 02:00N 29°47' W 092°11'0 0.0
2018-Jun-19 01:30N 29°47' W 092°11'0 0.0
2018-Jun-19 01:00N 29°47' W 092°11'0 0.0
2018-Jun-19 00:30N 29°47' W 092°11'0 0.0
2018-Jun-19 00:00N 29°47' W 092°11'0 0.0
2018-Jun-18 23:30N 29°47' W 092°11'0 0.0
2018-Jun-18 23:00N 29°47' W 092°11'0 0.0
2018-Jun-18 22:30N 29°47' W 092°11'1 1.9
2018-Jun-18 22:00N 29°47' W 092°10'1 1.4
2018-Jun-18 21:30N 29°47' W 092°09'1 3.0
2018-Jun-18 21:01N 29°47' W 092°07'0 0.0
2018-Jun-18 20:30N 29°47' W 092°07'0 0.2
2018-Jun-18 20:00N 29°47' W 092°07'3 5.2
2018-Jun-18 19:30N 29°48' W 092°04'3 6.7
2018-Jun-18 19:01N 29°50' W 092°01'3 6.2
2018-Jun-18 18:30N 29°50' W 091°57'0 0.0
2018-Jun-18 18:00N 29°50' W 091°57'1 2.1
2018-Jun-18 17:30N 29°51' W 091°56'  
2018-Jun-15 06:12N 29°51' W 091°56'1 4.9
2018-Jun-15 05:59N 29°50' W 091°57'2 5.2
2018-Jun-15 05:30N 29°50' W 091°60'3 5.2
2018-Jun-15 05:00N 29°49' W 092°03'2 4.9
2018-Jun-15 04:30N 29°48' W 092°05'2 4.9
2018-Jun-15 04:00N 29°47' W 092°08'2 4.6
2018-Jun-15 03:30N 29°47' W 092°11'2 3.5
2018-Jun-15 03:00N 29°47' W 092°12'1 1.6
2018-Jun-15 02:30N 29°48' W 092°13'2 3.3
2018-Jun-15 02:00N 29°48' W 092°15'2 3.6
2018-Jun-15 01:30N 29°49' W 092°17'2 4.4
2018-Jun-15 01:00N 29°50' W 092°19'2 3.5
2018-Jun-15 00:30N 29°51' W 092°21'1 2.5
2018-Jun-15 00:00N 29°52' W 092°22'2 3.6
2018-Jun-14 23:29N 29°53' W 092°23'2 4.7
2018-Jun-14 23:00N 29°53' W 092°26'34 4.4
2018-Jun-14 15:20N 29°56' W 093°05'2 4.0
2018-Jun-14 14:50N 29°56' W 093°07'1 4.3
2018-Jun-14 14:30N 29°56' W 093°09'2 3.6
2018-Jun-14 13:56N 29°57' W 093°11'1 3.1
2018-Jun-14 13:30N 29°58' W 093°12'1 2.8
2018-Jun-14 13:00N 29°59' W 093°13'2 3.1
2018-Jun-14 12:30N 30°01' W 093°14'2 3.6
2018-Jun-14 12:01N 30°02' W 093°15'2 3.1
2018-Jun-14 11:30N 30°03' W 093°16'2 3.2
2018-Jun-14 11:00N 30°05' W 093°17'1 2.1
2018-Jun-14 10:30N 30°05' W 093°18'1 2.4
2018-Jun-14 10:00N 30°06' W 093°19'0 0.4
2018-Jun-14 09:30N 30°06' W 093°19'0 0.0
2018-Jun-14 09:01N 30°06' W 093°19'0 0.0
2018-Jun-14 08:30N 30°06' W 093°19'0 0.0
2018-Jun-14 08:00N 30°06' W 093°19'0 0.0
2018-Jun-14 07:30N 30°06' W 093°19'0 0.0
2018-Jun-14 07:00N 30°06' W 093°19'0 0.0
2018-Jun-14 06:30N 30°06' W 093°19'0 0.0
2018-Jun-14 06:00N 30°06' W 093°19'0 0.0
2018-Jun-14 05:31N 30°06' W 093°19'0 0.0
2018-Jun-14 05:00N 30°06' W 093°19'0 0.0
2018-Jun-14 04:30N 30°06' W 093°19'0 0.0
2018-Jun-14 04:01N 30°06' W 093°19'0 0.0
2018-Jun-14 03:30N 30°06' W 093°19'0 0.0
2018-Jun-14 03:00N 30°06' W 093°19'0 0.0
2018-Jun-14 02:30N 30°06' W 093°19'0 0.0
2018-Jun-14 02:00N 30°06' W 093°19'0 0.0
2018-Jun-14 01:30N 30°06' W 093°19'0 0.0
2018-Jun-14 01:00N 30°06' W 093°19'0 0.0
2018-Jun-14 00:30N 30°06' W 093°19'0 0.0
2018-Jun-14 00:00N 30°06' W 093°19'0 0.0
2018-Jun-13 23:30N 30°06' W 093°19'0 0.0
2018-Jun-13 23:01N 30°06' W 093°19'0 0.0
2018-Jun-13 22:30N 30°06' W 093°19'0 0.0
2018-Jun-13 22:01N 30°06' W 093°19'0 0.0
2018-Jun-13 21:30N 30°06' W 093°19'0 0.0
2018-Jun-13 21:00N 30°06' W 093°19'0 0.0
2018-Jun-13 20:30N 30°06' W 093°19'0 0.0
2018-Jun-13 20:00N 30°06' W 093°19'0 0.0
2018-Jun-13 19:30N 30°06' W 093°19'  

Dump ship's entire track history